sensor_id;sensor_type;location;lat;lon;timestamp;temperature;humidity
44117;DHT22;29781;49.480;8.512;2024-02-04T00:00:23;9.90;99.90
44117;DHT22;29781;49.480;8.512;2024-02-04T00:02:48;9.90;99.90
44117;DHT22;29781;49.480;8.512;2024-02-04T00:05:14;9.90;99.90
44117;DHT22;29781;49.480;8.512;2024-02-04T00:07:39;9.90;99.90
44117;DHT22;29781;49.480;8.512;2024-02-04T00:10:05;9.90;99.90
44117;DHT22;29781;49.480;8.512;2024-02-04T00:12:31;10.00;99.90
44117;DHT22;29781;49.480;8.512;2024-02-04T00:14:56;10.00;99.90
44117;DHT22;29781;49.480;8.512;2024-02-04T00:17:22;10.00;99.90
44117;DHT22;29781;49.480;8.512;2024-02-04T00:19:47;10.00;99.90
44117;DHT22;29781;49.480;8.512;2024-02-04T00:22:13;10.00;99.90
44117;DHT22;29781;49.480;8.512;2024-02-04T00:24:38;10.10;99.90
44117;DHT22;29781;49.480;8.512;2024-02-04T00:27:04;10.00;99.90
44117;DHT22;29781;49.480;8.512;2024-02-04T00:29:29;10.00;99.90
44117;DHT22;29781;49.480;8.512;2024-02-04T00:31:55;10.00;99.90
44117;DHT22;29781;49.480;8.512;2024-02-04T00:34:21;10.10;99.90
44117;DHT22;29781;49.480;8.512;2024-02-04T00:36:46;10.00;99.90
44117;DHT22;29781;49.480;8.512;2024-02-04T00:39:12;10.00;99.90
44117;DHT22;29781;49.480;8.512;2024-02-04T00:41:37;10.00;99.90
44117;DHT22;29781;49.480;8.512;2024-02-04T00:44:03;9.90;99.90
44117;DHT22;29781;49.480;8.512;2024-02-04T00:46:28;9.90;99.90
44117;DHT22;29781;49.480;8.512;2024-02-04T00:48:54;9.80;99.90
44117;DHT22;29781;49.480;8.512;2024-02-04T00:51:20;9.80;99.90
44117;DHT22;29781;49.480;8.512;2024-02-04T00:53:46;9.80;99.90
44117;DHT22;29781;49.480;8.512;2024-02-04T00:56:12;9.80;99.90
44117;DHT22;29781;49.480;8.512;2024-02-04T00:58:38;9.70;99.90
44117;DHT22;29781;49.480;8.512;2024-02-04T01:01:03;9.70;99.90
44117;DHT22;29781;49.480;8.512;2024-02-04T01:03:30;9.70;99.90
44117;DHT22;29781;49.480;8.512;2024-02-04T01:05:55;9.80;99.90
44117;DHT22;29781;49.480;8.512;2024-02-04T01:08:21;9.60;99.90
44117;DHT22;29781;49.480;8.512;2024-02-04T01:10:47;9.70;99.90
44117;DHT22;29781;49.480;8.512;2024-02-04T01:13:13;9.70;99.90
44117;DHT22;29781;49.480;8.512;2024-02-04T01:15:39;9.70;99.90
44117;DHT22;29781;49.480;8.512;2024-02-04T01:18:04;9.70;99.90
44117;DHT22;29781;49.480;8.512;2024-02-04T01:20:30;9.70;99.90
44117;DHT22;29781;49.480;8.512;2024-02-04T01:22:55;9.60;99.90
44117;DHT22;29781;49.480;8.512;2024-02-04T01:25:21;9.60;99.90
44117;DHT22;29781;49.480;8.512;2024-02-04T01:27:46;9.60;99.90
44117;DHT22;29781;49.480;8.512;2024-02-04T01:30:12;9.60;99.90
44117;DHT22;29781;49.480;8.512;2024-02-04T01:32:37;9.50;99.90
44117;DHT22;29781;49.480;8.512;2024-02-04T01:35:03;9.50;99.90
44117;DHT22;29781;49.480;8.512;2024-02-04T01:37:29;9.50;99.90
44117;DHT22;29781;49.480;8.512;2024-02-04T01:39:54;9.50;99.90
44117;DHT22;29781;49.480;8.512;2024-02-04T01:42:20;9.60;99.90
44117;DHT22;29781;49.480;8.512;2024-02-04T01:44:46;9.50;99.90
44117;DHT22;29781;49.480;8.512;2024-02-04T01:47:11;9.50;99.90
44117;DHT22;29781;49.480;8.512;2024-02-04T01:49:38;9.50;99.90
44117;DHT22;29781;49.480;8.512;2024-02-04T01:52:04;9.50;99.90
44117;DHT22;29781;49.480;8.512;2024-02-04T01:54:31;9.50;99.90
44117;DHT22;29781;49.480;8.512;2024-02-04T01:56:59;9.50;99.90
44117;DHT22;29781;49.480;8.512;2024-02-04T01:59:29;9.50;99.90
44117;DHT22;29781;49.480;8.512;2024-02-04T02:02:05;9.50;99.90
44117;DHT22;29781;49.480;8.512;2024-02-04T02:04:31;9.50;99.90
44117;DHT22;29781;49.480;8.512;2024-02-04T02:06:57;9.50;99.90
44117;DHT22;29781;49.480;8.512;2024-02-04T02:09:25;9.50;99.90
44117;DHT22;29781;49.480;8.512;2024-02-04T02:12:01;9.50;99.90
44117;DHT22;29781;49.480;8.512;2024-02-04T02:14:33;9.40;99.90
44117;DHT22;29781;49.480;8.512;2024-02-04T02:17:02;9.40;99.90
44117;DHT22;29781;49.480;8.512;2024-02-04T02:19:59;9.30;99.90
44117;DHT22;29781;49.480;8.512;2024-02-04T02:24:57;9.30;99.90
44117;DHT22;29781;49.480;8.512;2024-02-04T02:27:22;9.20;99.90
44117;DHT22;29781;49.480;8.512;2024-02-04T02:29:48;9.30;99.90
44117;DHT22;29781;49.480;8.512;2024-02-04T02:32:14;9.30;99.90
44117;DHT22;29781;49.480;8.512;2024-02-04T02:34:39;9.20;99.90
44117;DHT22;29781;49.480;8.512;2024-02-04T02:37:26;9.20;99.90
44117;DHT22;29781;49.480;8.512;2024-02-04T02:40:00;9.30;99.90
44117;DHT22;29781;49.480;8.512;2024-02-04T02:42:28;9.20;99.90
44117;DHT22;29781;49.480;8.512;2024-02-04T02:44:55;9.10;99.90
44117;DHT22;29781;49.480;8.512;2024-02-04T02:47:22;9.10;99.90
44117;DHT22;29781;49.480;8.512;2024-02-04T02:49:51;9.10;99.90
44117;DHT22;29781;49.480;8.512;2024-02-04T02:52:17;8.90;99.90
44117;DHT22;29781;49.480;8.512;2024-02-04T02:54:42;8.90;99.90
44117;DHT22;29781;49.480;8.512;2024-02-04T02:57:08;8.90;99.90
44117;DHT22;29781;49.480;8.512;2024-02-04T02:59:33;9.00;99.90
44117;DHT22;29781;49.480;8.512;2024-02-04T03:01:59;9.00;99.90
44117;DHT22;29781;49.480;8.512;2024-02-04T03:04:25;9.00;99.90
44117;DHT22;29781;49.480;8.512;2024-02-04T03:06:50;9.10;99.90
44117;DHT22;29781;49.480;8.512;2024-02-04T03:09:16;9.10;99.90
44117;DHT22;29781;49.480;8.512;2024-02-04T03:11:42;9.10;99.90
44117;DHT22;29781;49.480;8.512;2024-02-04T03:14:08;9.20;99.90
44117;DHT22;29781;49.480;8.512;2024-02-04T03:16:33;9.10;99.90
44117;DHT22;29781;49.480;8.512;2024-02-04T03:18:59;9.10;99.90
44117;DHT22;29781;49.480;8.512;2024-02-04T03:21:24;9.10;99.90
44117;DHT22;29781;49.480;8.512;2024-02-04T03:23:49;9.10;99.90
44117;DHT22;29781;49.480;8.512;2024-02-04T03:26:18;9.10;99.90
44117;DHT22;29781;49.480;8.512;2024-02-04T03:28:46;9.20;99.90
44117;DHT22;29781;49.480;8.512;2024-02-04T03:31:12;9.20;99.90
44117;DHT22;29781;49.480;8.512;2024-02-04T03:33:44;9.20;99.90
44117;DHT22;29781;49.480;8.512;2024-02-04T03:36:09;9.30;99.90
44117;DHT22;29781;49.480;8.512;2024-02-04T03:38:35;9.40;99.90
44117;DHT22;29781;49.480;8.512;2024-02-04T03:41:00;9.40;99.90
44117;DHT22;29781;49.480;8.512;2024-02-04T03:43:26;9.60;99.90
44117;DHT22;29781;49.480;8.512;2024-02-04T03:45:51;9.60;99.90
44117;DHT22;29781;49.480;8.512;2024-02-04T03:48:17;9.60;99.90
44117;DHT22;29781;49.480;8.512;2024-02-04T03:50:42;9.60;99.90
44117;DHT22;29781;49.480;8.512;2024-02-04T03:53:08;9.60;99.90
44117;DHT22;29781;49.480;8.512;2024-02-04T03:55:34;9.60;99.90
44117;DHT22;29781;49.480;8.512;2024-02-04T03:57:59;9.70;99.90
44117;DHT22;29781;49.480;8.512;2024-02-04T04:00:25;9.70;99.90
44117;DHT22;29781;49.480;8.512;2024-02-04T04:02:50;9.70;99.90
44117;DHT22;29781;49.480;8.512;2024-02-04T04:05:16;9.60;99.90
44117;DHT22;29781;49.480;8.512;2024-02-04T04:07:41;9.70;99.90
44117;DHT22;29781;49.480;8.512;2024-02-04T04:10:07;9.70;99.90
44117;DHT22;29781;49.480;8.512;2024-02-04T04:12:33;9.60;99.90
44117;DHT22;29781;49.480;8.512;2024-02-04T04:14:58;9.70;99.90
44117;DHT22;29781;49.480;8.512;2024-02-04T04:17:24;9.70;99.90
44117;DHT22;29781;49.480;8.512;2024-02-04T04:19:49;9.70;99.90
44117;DHT22;29781;49.480;8.512;2024-02-04T04:22:15;9.70;99.90
44117;DHT22;29781;49.480;8.512;2024-02-04T04:24:40;9.70;99.90
44117;DHT22;29781;49.480;8.512;2024-02-04T04:27:06;9.70;99.90
44117;DHT22;29781;49.480;8.512;2024-02-04T04:29:31;9.70;99.90
44117;DHT22;29781;49.480;8.512;2024-02-04T04:31:57;9.70;99.90
44117;DHT22;29781;49.480;8.512;2024-02-04T04:34:22;9.70;99.90
44117;DHT22;29781;49.480;8.512;2024-02-04T04:36:48;9.80;99.90
44117;DHT22;29781;49.480;8.512;2024-02-04T04:39:13;9.70;99.90
44117;DHT22;29781;49.480;8.512;2024-02-04T04:41:41;9.60;99.90
44117;DHT22;29781;49.480;8.512;2024-02-04T04:44:07;9.50;99.90
44117;DHT22;29781;49.480;8.512;2024-02-04T04:46:32;9.50;99.90
44117;DHT22;29781;49.480;8.512;2024-02-04T04:48:58;9.60;99.90
44117;DHT22;29781;49.480;8.512;2024-02-04T04:51:24;9.70;99.90
44117;DHT22;29781;49.480;8.512;2024-02-04T04:53:49;9.70;99.90
44117;DHT22;29781;49.480;8.512;2024-02-04T04:56:15;9.70;99.90
44117;DHT22;29781;49.480;8.512;2024-02-04T04:58:41;9.80;99.90
44117;DHT22;29781;49.480;8.512;2024-02-04T05:01:06;9.80;99.90
44117;DHT22;29781;49.480;8.512;2024-02-04T05:03:32;9.80;99.90
44117;DHT22;29781;49.480;8.512;2024-02-04T05:05:58;9.80;99.90
44117;DHT22;29781;49.480;8.512;2024-02-04T05:08:23;9.90;99.90
44117;DHT22;29781;49.480;8.512;2024-02-04T05:10:49;9.90;99.90
44117;DHT22;29781;49.480;8.512;2024-02-04T05:13:14;9.90;99.90
44117;DHT22;29781;49.480;8.512;2024-02-04T05:15:40;10.00;99.90
44117;DHT22;29781;49.480;8.512;2024-02-04T05:18:05;9.80;99.90
44117;DHT22;29781;49.480;8.512;2024-02-04T05:20:31;9.70;99.90
44117;DHT22;29781;49.480;8.512;2024-02-04T05:22:56;9.80;99.90
44117;DHT22;29781;49.480;8.512;2024-02-04T05:25:23;9.80;99.90
44117;DHT22;29781;49.480;8.512;2024-02-04T05:27:48;9.90;99.90
44117;DHT22;29781;49.480;8.512;2024-02-04T05:30:14;9.80;99.90
44117;DHT22;29781;49.480;8.512;2024-02-04T05:32:41;9.80;99.90
44117;DHT22;29781;49.480;8.512;2024-02-04T05:35:07;9.70;99.90
44117;DHT22;29781;49.480;8.512;2024-02-04T05:37:33;9.80;99.90
44117;DHT22;29781;49.480;8.512;2024-02-04T05:39:58;9.70;99.90
44117;DHT22;29781;49.480;8.512;2024-02-04T05:42:24;9.70;99.90
44117;DHT22;29781;49.480;8.512;2024-02-04T05:44:49;9.80;99.90
44117;DHT22;29781;49.480;8.512;2024-02-04T05:47:15;9.70;99.90
44117;DHT22;29781;49.480;8.512;2024-02-04T05:49:40;9.60;99.90
44117;DHT22;29781;49.480;8.512;2024-02-04T05:52:06;9.60;99.90
44117;DHT22;29781;49.480;8.512;2024-02-04T05:54:32;9.50;99.90
44117;DHT22;29781;49.480;8.512;2024-02-04T05:57:02;9.60;99.90
44117;DHT22;29781;49.480;8.512;2024-02-04T05:59:27;9.70;99.90
44117;DHT22;29781;49.480;8.512;2024-02-04T06:01:53;9.50;99.90
44117;DHT22;29781;49.480;8.512;2024-02-04T06:04:18;9.60;99.90
44117;DHT22;29781;49.480;8.512;2024-02-04T06:06:44;9.60;99.90
44117;DHT22;29781;49.480;8.512;2024-02-04T06:09:09;9.70;99.90
44117;DHT22;29781;49.480;8.512;2024-02-04T06:11:35;9.80;99.90
44117;DHT22;29781;49.480;8.512;2024-02-04T06:14:01;9.90;99.90
44117;DHT22;29781;49.480;8.512;2024-02-04T06:16:26;9.90;99.90
44117;DHT22;29781;49.480;8.512;2024-02-04T06:18:52;9.80;99.90
44117;DHT22;29781;49.480;8.512;2024-02-04T06:21:20;9.90;99.90
44117;DHT22;29781;49.480;8.512;2024-02-04T06:23:46;9.90;99.90
44117;DHT22;29781;49.480;8.512;2024-02-04T06:26:11;9.80;99.90
44117;DHT22;29781;49.480;8.512;2024-02-04T06:28:37;9.60;99.90
44117;DHT22;29781;49.480;8.512;2024-02-04T06:31:02;9.50;99.90
44117;DHT22;29781;49.480;8.512;2024-02-04T06:33:28;9.40;99.90
44117;DHT22;29781;49.480;8.512;2024-02-04T06:35:53;9.40;99.90
44117;DHT22;29781;49.480;8.512;2024-02-04T06:38:19;9.20;99.90
44117;DHT22;29781;49.480;8.512;2024-02-04T06:40:45;9.20;99.90
44117;DHT22;29781;49.480;8.512;2024-02-04T06:43:10;9.20;99.90
44117;DHT22;29781;49.480;8.512;2024-02-04T06:45:35;9.20;99.90
44117;DHT22;29781;49.480;8.512;2024-02-04T06:48:01;9.20;99.90
44117;DHT22;29781;49.480;8.512;2024-02-04T06:50:28;9.10;99.90
44117;DHT22;29781;49.480;8.512;2024-02-04T06:52:53;9.10;99.90
44117;DHT22;29781;49.480;8.512;2024-02-04T06:55:19;9.10;99.90
44117;DHT22;29781;49.480;8.512;2024-02-04T06:57:44;9.10;99.90
44117;DHT22;29781;49.480;8.512;2024-02-04T07:00:10;9.10;99.90
44117;DHT22;29781;49.480;8.512;2024-02-04T07:02:37;9.10;99.90
44117;DHT22;29781;49.480;8.512;2024-02-04T07:05:03;9.10;99.90
44117;DHT22;29781;49.480;8.512;2024-02-04T07:07:28;9.10;99.90
44117;DHT22;29781;49.480;8.512;2024-02-04T07:09:54;9.10;99.90
44117;DHT22;29781;49.480;8.512;2024-02-04T07:12:19;9.10;99.90
44117;DHT22;29781;49.480;8.512;2024-02-04T07:14:46;9.20;99.90
44117;DHT22;29781;49.480;8.512;2024-02-04T07:17:11;9.10;99.90
44117;DHT22;29781;49.480;8.512;2024-02-04T07:19:37;9.10;99.90
44117;DHT22;29781;49.480;8.512;2024-02-04T07:22:03;9.10;99.90
44117;DHT22;29781;49.480;8.512;2024-02-04T07:24:29;9.00;99.90
44117;DHT22;29781;49.480;8.512;2024-02-04T07:26:54;9.00;99.90
44117;DHT22;29781;49.480;8.512;2024-02-04T07:29:19;8.90;99.90
44117;DHT22;29781;49.480;8.512;2024-02-04T07:31:45;8.90;99.90
44117;DHT22;29781;49.480;8.512;2024-02-04T07:34:10;8.80;99.90
44117;DHT22;29781;49.480;8.512;2024-02-04T07:36:36;8.90;99.90
44117;DHT22;29781;49.480;8.512;2024-02-04T07:39:02;8.90;99.90
44117;DHT22;29781;49.480;8.512;2024-02-04T07:41:30;8.90;99.90
44117;DHT22;29781;49.480;8.512;2024-02-04T07:43:55;8.90;99.90
44117;DHT22;29781;49.480;8.512;2024-02-04T07:46:21;9.00;99.90
44117;DHT22;29781;49.480;8.512;2024-02-04T07:48:46;8.80;99.90
44117;DHT22;29781;49.480;8.512;2024-02-04T07:51:12;8.80;99.90
44117;DHT22;29781;49.480;8.512;2024-02-04T07:53:38;8.80;99.90
44117;DHT22;29781;49.480;8.512;2024-02-04T07:56:04;8.80;99.90
44117;DHT22;29781;49.480;8.512;2024-02-04T07:58:32;8.90;99.90
44117;DHT22;29781;49.480;8.512;2024-02-04T08:00:57;8.90;99.90
44117;DHT22;29781;49.480;8.512;2024-02-04T08:03:23;9.00;99.90
44117;DHT22;29781;49.480;8.512;2024-02-04T08:05:48;9.10;99.90
44117;DHT22;29781;49.480;8.512;2024-02-04T08:08:14;9.00;99.90
44117;DHT22;29781;49.480;8.512;2024-02-04T08:10:39;8.90;99.90
44117;DHT22;29781;49.480;8.512;2024-02-04T08:13:05;9.00;99.90
44117;DHT22;29781;49.480;8.512;2024-02-04T08:15:30;9.00;99.90
44117;DHT22;29781;49.480;8.512;2024-02-04T08:17:56;9.00;99.90
44117;DHT22;29781;49.480;8.512;2024-02-04T08:20:22;9.00;99.90
44117;DHT22;29781;49.480;8.512;2024-02-04T08:22:47;9.00;99.90
44117;DHT22;29781;49.480;8.512;2024-02-04T08:25:14;9.00;99.90
44117;DHT22;29781;49.480;8.512;2024-02-04T08:27:39;9.00;99.90
44117;DHT22;29781;49.480;8.512;2024-02-04T08:30:06;9.10;99.90
44117;DHT22;29781;49.480;8.512;2024-02-04T08:32:31;9.10;99.90
44117;DHT22;29781;49.480;8.512;2024-02-04T08:34:57;9.00;99.90
44117;DHT22;29781;49.480;8.512;2024-02-04T08:37:22;8.90;99.90
44117;DHT22;29781;49.480;8.512;2024-02-04T08:39:48;8.90;99.90
44117;DHT22;29781;49.480;8.512;2024-02-04T08:42:14;8.90;99.90
44117;DHT22;29781;49.480;8.512;2024-02-04T08:44:40;8.90;99.90
44117;DHT22;29781;49.480;8.512;2024-02-04T08:47:06;8.90;99.90
44117;DHT22;29781;49.480;8.512;2024-02-04T08:49:35;9.00;99.90
44117;DHT22;29781;49.480;8.512;2024-02-04T08:52:01;9.00;99.90
44117;DHT22;29781;49.480;8.512;2024-02-04T08:54:27;9.00;99.90
44117;DHT22;29781;49.480;8.512;2024-02-04T08:56:53;9.10;99.90
44117;DHT22;29781;49.480;8.512;2024-02-04T08:59:18;9.10;99.90
44117;DHT22;29781;49.480;8.512;2024-02-04T09:01:44;9.20;99.90
44117;DHT22;29781;49.480;8.512;2024-02-04T09:04:09;9.30;99.90
44117;DHT22;29781;49.480;8.512;2024-02-04T09:06:35;9.20;99.90
44117;DHT22;29781;49.480;8.512;2024-02-04T09:09:00;9.30;99.90
44117;DHT22;29781;49.480;8.512;2024-02-04T09:11:26;9.40;99.90
44117;DHT22;29781;49.480;8.512;2024-02-04T09:13:51;9.40;99.90
44117;DHT22;29781;49.480;8.512;2024-02-04T09:16:17;9.30;99.90
44117;DHT22;29781;49.480;8.512;2024-02-04T09:18:42;9.30;99.90
44117;DHT22;29781;49.480;8.512;2024-02-04T09:21:08;9.30;99.90
44117;DHT22;29781;49.480;8.512;2024-02-04T09:23:34;9.30;99.90
44117;DHT22;29781;49.480;8.512;2024-02-04T09:25:59;9.30;99.90
44117;DHT22;29781;49.480;8.512;2024-02-04T09:28:25;9.30;99.90
44117;DHT22;29781;49.480;8.512;2024-02-04T09:30:50;9.30;99.90
44117;DHT22;29781;49.480;8.512;2024-02-04T09:33:15;9.30;99.90
44117;DHT22;29781;49.480;8.512;2024-02-04T09:35:41;9.40;99.90
44117;DHT22;29781;49.480;8.512;2024-02-04T09:38:06;9.30;99.90
44117;DHT22;29781;49.480;8.512;2024-02-04T09:40:32;9.40;99.90
44117;DHT22;29781;49.480;8.512;2024-02-04T09:42:59;9.50;99.90
44117;DHT22;29781;49.480;8.512;2024-02-04T09:45:26;9.60;99.90
44117;DHT22;29781;49.480;8.512;2024-02-04T09:47:53;9.60;99.90
44117;DHT22;29781;49.480;8.512;2024-02-04T09:50:20;9.60;99.90
44117;DHT22;29781;49.480;8.512;2024-02-04T09:52:49;9.60;99.90
44117;DHT22;29781;49.480;8.512;2024-02-04T09:55:20;9.80;99.90
44117;DHT22;29781;49.480;8.512;2024-02-04T09:57:46;9.80;99.90
44117;DHT22;29781;49.480;8.512;2024-02-04T10:00:13;9.90;99.90
44117;DHT22;29781;49.480;8.512;2024-02-04T10:02:40;10.10;99.90
44117;DHT22;29781;49.480;8.512;2024-02-04T10:05:06;9.90;99.90
44117;DHT22;29781;49.480;8.512;2024-02-04T10:07:32;10.10;99.90
44117;DHT22;29781;49.480;8.512;2024-02-04T10:09:58;10.20;99.90
44117;DHT22;29781;49.480;8.512;2024-02-04T10:12:24;10.30;99.90
44117;DHT22;29781;49.480;8.512;2024-02-04T10:14:49;10.40;99.90
44117;DHT22;29781;49.480;8.512;2024-02-04T10:17:15;10.40;99.90
44117;DHT22;29781;49.480;8.512;2024-02-04T10:19:41;10.20;99.90
44117;DHT22;29781;49.480;8.512;2024-02-04T10:22:06;10.40;99.90
44117;DHT22;29781;49.480;8.512;2024-02-04T10:24:32;10.40;99.90
44117;DHT22;29781;49.480;8.512;2024-02-04T10:26:58;10.40;99.90
44117;DHT22;29781;49.480;8.512;2024-02-04T10:29:24;10.30;99.90
44117;DHT22;29781;49.480;8.512;2024-02-04T10:31:54;10.40;99.90
44117;DHT22;29781;49.480;8.512;2024-02-04T10:34:20;10.50;99.90
44117;DHT22;29781;49.480;8.512;2024-02-04T10:36:46;10.60;99.90
44117;DHT22;29781;49.480;8.512;2024-02-04T10:39:11;10.60;99.90
44117;DHT22;29781;49.480;8.512;2024-02-04T10:42:01;10.70;99.90
44117;DHT22;29781;49.480;8.512;2024-02-04T10:44:28;10.60;99.90
44117;DHT22;29781;49.480;8.512;2024-02-04T10:47:00;10.70;99.90
44117;DHT22;29781;49.480;8.512;2024-02-04T10:49:28;10.70;99.90
44117;DHT22;29781;49.480;8.512;2024-02-04T10:51:56;10.80;99.90
44117;DHT22;29781;49.480;8.512;2024-02-04T10:54:25;10.80;99.90
44117;DHT22;29781;49.480;8.512;2024-02-04T10:56:57;10.70;99.90
44117;DHT22;29781;49.480;8.512;2024-02-04T10:59:25;10.70;99.90
44117;DHT22;29781;49.480;8.512;2024-02-04T11:01:55;10.80;99.90
44117;DHT22;29781;49.480;8.512;2024-02-04T11:04:22;10.90;99.90
44117;DHT22;29781;49.480;8.512;2024-02-04T11:06:49;10.70;99.90
44117;DHT22;29781;49.480;8.512;2024-02-04T11:09:16;10.70;99.90
44117;DHT22;29781;49.480;8.512;2024-02-04T11:11:43;10.60;99.90
44117;DHT22;29781;49.480;8.512;2024-02-04T11:14:12;10.60;99.90
44117;DHT22;29781;49.480;8.512;2024-02-04T11:16:49;10.70;99.90
44117;DHT22;29781;49.480;8.512;2024-02-04T11:28:04;11.10;99.90
44117;DHT22;29781;49.480;8.512;2024-02-04T11:30:34;11.00;99.90
44117;DHT22;29781;49.480;8.512;2024-02-04T11:33:02;11.00;99.90
44117;DHT22;29781;49.480;8.512;2024-02-04T11:35:28;10.90;99.90
44117;DHT22;29781;49.480;8.512;2024-02-04T11:37:54;10.90;99.90
44117;DHT22;29781;49.480;8.512;2024-02-04T11:40:21;10.80;99.90
44117;DHT22;29781;49.480;8.512;2024-02-04T11:42:48;10.80;99.90
44117;DHT22;29781;49.480;8.512;2024-02-04T11:45:14;10.90;99.90
44117;DHT22;29781;49.480;8.512;2024-02-04T11:47:40;11.00;99.90
44117;DHT22;29781;49.480;8.512;2024-02-04T11:50:07;11.00;99.90
44117;DHT22;29781;49.480;8.512;2024-02-04T11:52:33;11.00;99.90
44117;DHT22;29781;49.480;8.512;2024-02-04T11:54:59;11.00;99.90
44117;DHT22;29781;49.480;8.512;2024-02-04T11:57:25;11.20;99.90
44117;DHT22;29781;49.480;8.512;2024-02-04T11:59:53;11.30;99.90
44117;DHT22;29781;49.480;8.512;2024-02-04T12:02:20;11.40;99.90
44117;DHT22;29781;49.480;8.512;2024-02-04T12:04:46;11.40;99.90
44117;DHT22;29781;49.480;8.512;2024-02-04T12:07:13;11.40;99.90
44117;DHT22;29781;49.480;8.512;2024-02-04T12:09:40;11.30;99.90
44117;DHT22;29781;49.480;8.512;2024-02-04T12:12:06;11.30;99.90
44117;DHT22;29781;49.480;8.512;2024-02-04T12:14:37;11.20;99.90
44117;DHT22;29781;49.480;8.512;2024-02-04T12:17:10;11.50;99.90
44117;DHT22;29781;49.480;8.512;2024-02-04T12:19:38;11.40;99.90
44117;DHT22;29781;49.480;8.512;2024-02-04T12:22:05;11.50;99.90
44117;DHT22;29781;49.480;8.512;2024-02-04T12:24:35;11.40;99.90
44117;DHT22;29781;49.480;8.512;2024-02-04T12:27:02;11.50;99.90
44117;DHT22;29781;49.480;8.512;2024-02-04T12:29:28;11.60;99.90
44117;DHT22;29781;49.480;8.512;2024-02-04T12:32:04;11.70;99.90
44117;DHT22;29781;49.480;8.512;2024-02-04T12:34:31;12.10;99.90
44117;DHT22;29781;49.480;8.512;2024-02-04T12:37:00;12.00;99.90
44117;DHT22;29781;49.480;8.512;2024-02-04T12:39:26;12.30;99.90
44117;DHT22;29781;49.480;8.512;2024-02-04T12:41:51;12.10;99.90
44117;DHT22;29781;49.480;8.512;2024-02-04T12:44:18;12.10;99.90
44117;DHT22;29781;49.480;8.512;2024-02-04T12:46:44;12.10;99.90
44117;DHT22;29781;49.480;8.512;2024-02-04T12:49:10;12.00;99.90
44117;DHT22;29781;49.480;8.512;2024-02-04T12:51:36;12.00;99.90
44117;DHT22;29781;49.480;8.512;2024-02-04T12:54:09;11.90;99.90
44117;DHT22;29781;49.480;8.512;2024-02-04T12:56:45;11.70;99.90
44117;DHT22;29781;49.480;8.512;2024-02-04T12:59:12;11.70;99.90
44117;DHT22;29781;49.480;8.512;2024-02-04T13:01:52;11.60;99.90
44117;DHT22;29781;49.480;8.512;2024-02-04T13:04:17;11.60;99.90
44117;DHT22;29781;49.480;8.512;2024-02-04T13:06:43;11.60;99.90
44117;DHT22;29781;49.480;8.512;2024-02-04T13:09:08;11.60;99.90
44117;DHT22;29781;49.480;8.512;2024-02-04T13:11:34;11.50;99.90
44117;DHT22;29781;49.480;8.512;2024-02-04T13:14:00;11.60;99.90
44117;DHT22;29781;49.480;8.512;2024-02-04T13:16:25;11.60;99.90
44117;DHT22;29781;49.480;8.512;2024-02-04T13:18:53;11.50;99.90
44117;DHT22;29781;49.480;8.512;2024-02-04T13:21:19;11.40;99.90
44117;DHT22;29781;49.480;8.512;2024-02-04T13:23:50;11.40;99.90
44117;DHT22;29781;49.480;8.512;2024-02-04T13:26:16;11.40;99.90
44117;DHT22;29781;49.480;8.512;2024-02-04T13:28:42;11.30;99.90
44117;DHT22;29781;49.480;8.512;2024-02-04T13:31:08;11.30;99.90
44117;DHT22;29781;49.480;8.512;2024-02-04T13:33:34;11.50;99.90
44117;DHT22;29781;49.480;8.512;2024-02-04T13:35:59;11.50;99.90
44117;DHT22;29781;49.480;8.512;2024-02-04T13:38:25;11.40;99.90
44117;DHT22;29781;49.480;8.512;2024-02-04T13:40:50;11.50;99.90
44117;DHT22;29781;49.480;8.512;2024-02-04T13:43:16;11.50;99.90
44117;DHT22;29781;49.480;8.512;2024-02-04T13:45:42;11.40;99.90
44117;DHT22;29781;49.480;8.512;2024-02-04T13:48:07;11.30;99.90
44117;DHT22;29781;49.480;8.512;2024-02-04T13:50:33;11.30;99.90
44117;DHT22;29781;49.480;8.512;2024-02-04T13:52:58;11.40;99.90
44117;DHT22;29781;49.480;8.512;2024-02-04T13:55:24;11.40;99.90
44117;DHT22;29781;49.480;8.512;2024-02-04T13:57:50;11.20;99.90
44117;DHT22;29781;49.480;8.512;2024-02-04T14:00:16;11.10;99.90
44117;DHT22;29781;49.480;8.512;2024-02-04T14:02:43;11.30;99.90
44117;DHT22;29781;49.480;8.512;2024-02-04T14:05:08;11.30;99.90
44117;DHT22;29781;49.480;8.512;2024-02-04T14:07:34;11.10;99.90
44117;DHT22;29781;49.480;8.512;2024-02-04T14:09:59;11.20;99.90
44117;DHT22;29781;49.480;8.512;2024-02-04T14:12:25;11.10;99.90
44117;DHT22;29781;49.480;8.512;2024-02-04T14:14:51;11.10;99.90
44117;DHT22;29781;49.480;8.512;2024-02-04T14:17:16;11.10;99.90
44117;DHT22;29781;49.480;8.512;2024-02-04T14:19:42;11.20;99.90
44117;DHT22;29781;49.480;8.512;2024-02-04T14:22:10;11.30;99.90
44117;DHT22;29781;49.480;8.512;2024-02-04T14:24:36;11.30;99.90
44117;DHT22;29781;49.480;8.512;2024-02-04T14:27:02;11.40;99.90
44117;DHT22;29781;49.480;8.512;2024-02-04T14:29:28;11.40;99.90
44117;DHT22;29781;49.480;8.512;2024-02-04T14:31:53;11.50;99.90
44117;DHT22;29781;49.480;8.512;2024-02-04T14:34:21;11.40;99.90
44117;DHT22;29781;49.480;8.512;2024-02-04T14:36:46;11.40;99.90
44117;DHT22;29781;49.480;8.512;2024-02-04T14:39:12;11.40;99.90
44117;DHT22;29781;49.480;8.512;2024-02-04T14:41:37;11.40;99.90
44117;DHT22;29781;49.480;8.512;2024-02-04T14:44:03;11.40;99.90
44117;DHT22;29781;49.480;8.512;2024-02-04T14:46:28;11.30;99.90
44117;DHT22;29781;49.480;8.512;2024-02-04T14:48:54;11.20;99.90
44117;DHT22;29781;49.480;8.512;2024-02-04T14:51:19;11.20;99.90
44117;DHT22;29781;49.480;8.512;2024-02-04T14:53:45;11.10;99.90
44117;DHT22;29781;49.480;8.512;2024-02-04T14:56:10;11.10;99.90
44117;DHT22;29781;49.480;8.512;2024-02-04T14:58:36;11.10;99.90
44117;DHT22;29781;49.480;8.512;2024-02-04T15:01:02;11.20;99.90
44117;DHT22;29781;49.480;8.512;2024-02-04T15:03:28;11.20;99.90
44117;DHT22;29781;49.480;8.512;2024-02-04T15:05:54;11.30;99.90
44117;DHT22;29781;49.480;8.512;2024-02-04T15:08:19;11.30;99.90
44117;DHT22;29781;49.480;8.512;2024-02-04T15:10:45;11.20;99.90
44117;DHT22;29781;49.480;8.512;2024-02-04T15:13:10;11.30;99.90
44117;DHT22;29781;49.480;8.512;2024-02-04T15:15:36;11.30;99.90
44117;DHT22;29781;49.480;8.512;2024-02-04T15:18:02;11.20;99.90
44117;DHT22;29781;49.480;8.512;2024-02-04T15:20:29;11.00;99.90
44117;DHT22;29781;49.480;8.512;2024-02-04T15:22:56;11.20;99.90
44117;DHT22;29781;49.480;8.512;2024-02-04T15:25:23;11.20;99.90
44117;DHT22;29781;49.480;8.512;2024-02-04T15:27:51;11.10;99.90
44117;DHT22;29781;49.480;8.512;2024-02-04T15:30:18;11.10;99.90
44117;DHT22;29781;49.480;8.512;2024-02-04T15:32:44;11.00;99.90
44117;DHT22;29781;49.480;8.512;2024-02-04T15:35:10;11.00;99.90
44117;DHT22;29781;49.480;8.512;2024-02-04T15:37:36;11.00;99.90
44117;DHT22;29781;49.480;8.512;2024-02-04T15:40:02;11.00;99.90
44117;DHT22;29781;49.480;8.512;2024-02-04T15:42:28;11.10;99.90
44117;DHT22;29781;49.480;8.512;2024-02-04T15:44:54;11.10;99.90